createdAt,value
2023-04-24T00:00:17.131Z,96.38
2023-04-24T00:02:48.981Z,96.28
2023-04-24T00:05:17.979Z,96.24
2023-04-24T00:07:47.328Z,96.39
2023-04-24T00:10:15.346Z,96.36
2023-04-24T00:12:43.632Z,96.48
2023-04-24T00:15:12.084Z,96.13
2023-04-24T00:17:40.005Z,95.96
2023-04-24T00:20:09.198Z,95.92
2023-04-24T00:22:37.176Z,95.97
2023-04-24T00:25:05.614Z,96.09
2023-04-24T00:27:33.573Z,96.16
2023-04-24T00:30:01.433Z,95.93
2023-04-24T00:32:29.397Z,95.90
2023-04-24T00:34:57.408Z,95.91
2023-04-24T00:37:25.293Z,96.05
2023-04-24T00:39:53.291Z,96.03
2023-04-24T00:42:21.113Z,95.98
2023-04-24T00:44:49.696Z,96.21
2023-04-24T00:47:17.573Z,96.20
2023-04-24T00:49:45.658Z,96.13
2023-04-24T00:52:14.860Z,96.10
2023-04-24T00:54:42.809Z,96.21
2023-04-24T00:57:10.759Z,96.36
2023-04-24T00:59:39.371Z,96.26
2023-04-24T01:02:08.038Z,96.30
2023-04-24T01:04:36.242Z,96.37
2023-04-24T01:07:04.545Z,96.19
2023-04-24T01:09:32.563Z,96.03
2023-04-24T01:12:00.484Z,95.92
2023-04-24T01:14:28.465Z,95.46
2023-04-24T01:16:56.357Z,95.31
2023-04-24T01:19:24.227Z,95.14
2023-04-24T01:21:55.719Z,94.81
2023-04-24T01:24:23.656Z,94.56
2023-04-24T01:26:51.868Z,94.40
2023-04-24T01:29:19.805Z,94.32
2023-04-24T01:31:47.881Z,94.10
2023-04-24T01:34:16.840Z,94.20
2023-04-24T01:36:48.017Z,93.99
2023-04-24T01:39:16.181Z,94.10
2023-04-24T01:41:44.059Z,93.79
2023-04-24T01:44:12.321Z,93.50
2023-04-24T01:46:40.712Z,93.22
2023-04-24T01:49:08.938Z,92.71
2023-04-24T01:51:36.898Z,92.54
2023-04-24T01:54:05.222Z,92.27
2023-04-24T01:56:36.009Z,92.13
2023-04-24T01:59:06.050Z,92.14
2023-04-24T02:01:41.154Z,91.97
2023-04-24T02:04:10.249Z,91.87
2023-04-24T02:06:38.324Z,91.96
2023-04-24T02:09:06.363Z,91.87
2023-04-24T02:11:34.268Z,91.69
2023-04-24T02:14:02.115Z,91.95
2023-04-24T02:16:34.538Z,91.61
2023-04-24T02:19:02.454Z,91.70
2023-04-24T02:21:30.376Z,91.72
2023-04-24T02:23:58.298Z,91.47
2023-04-24T02:26:26.306Z,91.37
2023-04-24T02:28:54.281Z,91.32
2023-04-24T02:31:22.362Z,91.23
2023-04-24T02:33:50.656Z,91.16
2023-04-24T02:36:18.584Z,91.13
2023-04-24T02:38:46.555Z,90.91
2023-04-24T02:41:14.457Z,90.86
2023-04-24T02:43:42.511Z,90.98
2023-04-24T02:46:10.541Z,90.83
2023-04-24T02:48:38.465Z,90.79
2023-04-24T02:51:06.551Z,90.66
2023-04-24T02:53:34.687Z,90.91
2023-04-24T02:56:02.587Z,90.85
2023-04-24T02:58:30.439Z,90.99
2023-04-24T03:00:58.551Z,90.89
2023-04-24T03:03:26.899Z,90.79
2023-04-24T03:05:55.059Z,90.75
2023-04-24T03:08:23.087Z,90.85
2023-04-24T03:10:51.736Z,90.83
2023-04-24T03:13:19.656Z,90.88
2023-04-24T03:15:48.783Z,90.58
2023-04-24T03:18:16.864Z,89.89
2023-04-24T03:20:45.060Z,89.83
2023-04-24T03:23:12.929Z,89.76
2023-04-24T03:25:41.215Z,89.41
2023-04-24T03:28:09.074Z,89.54
2023-04-24T03:30:37.129Z,89.28
2023-04-24T03:33:05.210Z,89.14
2023-04-24T03:35:33.118Z,88.97
2023-04-24T03:38:00.983Z,88.80
2023-04-24T03:40:29.523Z,88.51
2023-04-24T03:42:57.356Z,88.55
2023-04-24T03:45:25.165Z,88.75
2023-04-24T03:47:53.111Z,88.81
2023-04-24T03:50:21.044Z,88.69
2023-04-24T03:52:48.917Z,88.79
2023-04-24T03:55:17.039Z,88.87
2023-04-24T03:57:44.985Z,88.89
2023-04-24T04:00:13.736Z,88.92
2023-04-24T04:02:41.805Z,89.01
2023-04-24T04:05:10.583Z,88.89
2023-04-24T04:07:38.525Z,88.90
2023-04-24T04:10:06.954Z,88.71
2023-04-24T04:12:34.954Z,88.74
2023-04-24T04:15:02.887Z,88.78
2023-04-24T04:17:30.774Z,88.69
2023-04-24T04:19:58.719Z,88.55
2023-04-24T04:22:26.788Z,88.34
2023-04-24T04:24:54.786Z,88.25
2023-04-24T04:27:23.689Z,88.14
2023-04-24T04:29:51.536Z,88.13
2023-04-24T04:32:19.470Z,88.15
2023-04-24T04:34:47.747Z,88.14
2023-04-24T04:37:16.666Z,88.21
2023-04-24T04:39:44.835Z,88.12
2023-04-24T04:42:12.885Z,88.10
2023-04-24T04:44:41.013Z,88.11
2023-04-24T04:47:09.968Z,88.26
2023-04-24T04:49:38.314Z,88.26
2023-04-24T04:52:06.274Z,88.21
2023-04-24T04:54:34.279Z,88.23
2023-04-24T04:57:04.302Z,88.07
2023-04-24T04:59:32.361Z,87.75
2023-04-24T05:02:00.312Z,87.78
2023-04-24T05:04:28.885Z,87.90
2023-04-24T05:06:57.114Z,87.94
2023-04-24T05:09:25.190Z,87.83
2023-04-24T05:11:53.115Z,87.53
2023-04-24T05:14:21.508Z,87.91
2023-04-24T05:16:49.528Z,87.85
2023-04-24T05:19:17.606Z,87.98
2023-04-24T05:21:45.588Z,88.12
2023-04-24T05:24:13.534Z,88.12
2023-04-24T05:26:41.420Z,88.04
2023-04-24T05:29:09.264Z,88.16
2023-04-24T05:31:37.289Z,88.59
2023-04-24T05:34:05.252Z,88.77
2023-04-24T05:36:33.399Z,88.54
2023-04-24T05:39:01.429Z,88.96
2023-04-24T05:41:29.417Z,88.80
2023-04-24T05:43:57.407Z,89.18
2023-04-24T05:46:25.360Z,89.15
2023-04-24T05:48:53.363Z,89.10
2023-04-24T05:51:21.256Z,89.36
2023-04-24T05:53:49.141Z,89.19
2023-04-24T05:56:18.363Z,89.29
2023-04-24T05:58:46.523Z,89.48
2023-04-24T06:01:16.573Z,89.49
2023-04-24T06:03:44.586Z,89.43
2023-04-24T06:06:12.662Z,89.57
2023-04-24T06:08:40.593Z,89.47
2023-04-24T06:11:08.518Z,89.30
2023-04-24T06:13:36.474Z,89.23
2023-04-24T06:16:04.538Z,89.06
2023-04-24T06:18:32.924Z,89.03
2023-04-24T06:21:00.882Z,87.78
2023-04-24T06:23:28.980Z,87.62
2023-04-24T06:25:56.949Z,87.23
2023-04-24T06:28:24.864Z,86.75
2023-04-24T06:30:52.760Z,87.15
2023-04-24T06:33:22.269Z,86.83
2023-04-24T06:35:51.681Z,86.84
2023-04-24T06:38:19.624Z,86.43
2023-04-24T06:40:47.645Z,86.13
2023-04-24T06:43:17.101Z,86.41
2023-04-24T06:45:46.305Z,86.29
2023-04-24T06:48:14.592Z,85.96
2023-04-24T06:50:42.565Z,85.57
2023-04-24T06:53:11.914Z,85.13
2023-04-24T06:55:39.763Z,84.01
2023-04-24T06:58:08.513Z,84.51
2023-04-24T07:00:36.445Z,83.57
2023-04-24T07:03:05.134Z,80.68
2023-04-24T07:05:33.666Z,80.12
2023-04-24T07:08:01.638Z,79.48
2023-04-24T07:10:30.934Z,78.73
2023-04-24T07:12:59.121Z,79.61
2023-04-24T07:15:27.200Z,80.19
2023-04-24T07:17:55.102Z,80.45
2023-04-24T07:20:23.080Z,79.92
2023-04-24T07:22:51.482Z,80.32
2023-04-24T07:25:19.583Z,79.47
2023-04-24T07:27:47.673Z,78.71
2023-04-24T07:30:15.801Z,77.69
2023-04-24T07:32:43.783Z,77.23
2023-04-24T07:35:12.198Z,76.62
2023-04-24T07:37:40.214Z,76.71
2023-04-24T07:40:08.816Z,77.08
2023-04-24T07:42:36.952Z,76.44
2023-04-24T07:45:05.317Z,74.39
2023-04-24T07:47:34.210Z,72.48
2023-04-24T07:50:02.274Z,72.29
2023-04-24T07:52:30.139Z,72.15
2023-04-24T07:55:00.722Z,71.40
2023-04-24T07:57:28.606Z,70.06
2023-04-24T07:59:57.161Z,70.90
2023-04-24T08:02:28.661Z,70.81
2023-04-24T08:04:57.700Z,69.46
2023-04-24T08:07:26.932Z,68.09
2023-04-24T08:09:54.794Z,67.07
2023-04-24T08:12:22.831Z,67.59
2023-04-24T08:14:50.819Z,68.06
2023-04-24T08:17:19.555Z,68.88
2023-04-24T08:19:50.547Z,67.46
2023-04-24T08:22:18.416Z,68.34
2023-04-24T08:24:46.273Z,68.11
2023-04-24T08:27:14.369Z,66.83
2023-04-24T08:29:42.498Z,67.53
2023-04-24T08:32:10.619Z,66.30
2023-04-24T08:34:38.657Z,66.91
2023-04-24T08:37:06.634Z,66.62
2023-04-24T08:39:34.790Z,67.23
2023-04-24T08:42:07.703Z,66.79
2023-04-24T08:44:36.863Z,65.03
2023-04-24T08:47:05.511Z,65.18
2023-04-24T08:49:35.095Z,65.22
2023-04-24T08:52:04.519Z,64.80
2023-04-24T08:54:34.286Z,65.19
2023-04-24T08:57:03.945Z,64.45
2023-04-24T08:59:33.621Z,62.57
2023-04-24T09:02:02.432Z,62.38
2023-04-24T09:04:31.674Z,63.57
2023-04-24T09:07:00.654Z,62.02
2023-04-24T09:09:29.408Z,61.45
2023-04-24T09:11:58.190Z,62.13
2023-04-24T09:14:26.378Z,60.82
2023-04-24T09:16:54.383Z,60.46
2023-04-24T09:19:24.074Z,60.15
2023-04-24T09:21:54.981Z,59.74
2023-04-24T09:24:27.363Z,60.32
2023-04-24T09:27:01.013Z,59.86
2023-04-24T09:29:29.251Z,59.43
2023-04-24T09:31:57.313Z,59.32
2023-04-24T09:34:27.406Z,59.35
2023-04-24T09:36:55.980Z,58.73
2023-04-24T09:39:23.868Z,59.48
2023-04-24T09:41:53.783Z,59.31
2023-04-24T09:44:26.576Z,58.64
2023-04-24T09:46:57.263Z,56.02
2023-04-24T09:49:26.641Z,57.60
2023-04-24T09:52:04.494Z,56.37
2023-04-24T09:54:32.973Z,56.81
2023-04-24T09:57:02.465Z,56.89
2023-04-24T09:59:30.901Z,56.97
2023-04-24T10:02:00.909Z,57.34
2023-04-24T10:04:30.189Z,56.81
2023-04-24T10:06:59.615Z,55.95
2023-04-24T10:09:29.370Z,56.32
2023-04-24T10:11:57.556Z,54.98
2023-04-24T10:14:27.861Z,54.28
2023-04-24T10:16:57.331Z,54.56
2023-04-24T10:19:28.485Z,54.18
2023-04-24T10:21:58.413Z,54.39
2023-04-24T10:24:26.423Z,55.08
2023-04-24T10:26:55.205Z,55.39
2023-04-24T10:29:24.736Z,54.07
2023-04-24T10:31:52.905Z,55.12
2023-04-24T10:34:23.853Z,54.86
2023-04-24T10:36:57.795Z,54.49
2023-04-24T10:39:27.785Z,55.29
2023-04-24T10:42:00.879Z,53.90
2023-04-24T10:44:38.630Z,53.52
2023-04-24T10:47:06.602Z,54.03
2023-04-24T10:49:34.851Z,53.47
2023-04-24T10:52:04.824Z,52.61
2023-04-24T10:54:36.922Z,53.65
2023-04-24T10:57:20.371Z,53.60
2023-04-24T10:59:49.709Z,53.28
2023-04-24T11:02:18.332Z,53.20
2023-04-24T11:04:47.686Z,53.78
2023-04-24T11:07:16.017Z,54.05
2023-04-24T11:09:45.276Z,52.80
2023-04-24T11:12:16.343Z,52.24
2023-04-24T11:15:00.406Z,51.20
2023-04-24T11:17:32.544Z,49.48
2023-04-24T11:20:25.873Z,50.77
2023-04-24T11:22:57.144Z,50.53
2023-04-24T11:25:25.667Z,51.25
2023-04-24T11:28:06.051Z,51.89
2023-04-24T11:30:35.875Z,50.88
2023-04-24T11:33:08.191Z,50.94
2023-04-24T11:35:43.040Z,50.82
2023-04-24T11:38:24.017Z,51.54
2023-04-24T11:40:53.848Z,51.93
2023-04-24T11:43:22.414Z,51.48
2023-04-24T11:45:51.204Z,51.30
2023-04-24T11:48:24.020Z,51.47
2023-04-24T11:50:52.955Z,51.69
2023-04-24T11:53:24.989Z,52.15
2023-04-24T11:55:53.016Z,51.68
2023-04-24T11:58:24.481Z,50.69
2023-04-24T12:01:00.045Z,51.08
2023-04-24T12:03:28.103Z,50.45
2023-04-24T12:06:08.700Z,49.91
2023-04-24T12:08:38.460Z,49.44
2023-04-24T12:11:11.848Z,50.55
2023-04-24T12:13:39.802Z,51.00
2023-04-24T12:16:08.020Z,50.79
2023-04-24T12:18:36.108Z,50.90
2023-04-24T12:21:28.885Z,50.87
2023-04-24T12:23:57.333Z,51.00
2023-04-24T12:26:25.592Z,51.69
2023-04-24T12:28:53.656Z,52.53
2023-04-24T12:31:23.249Z,50.91
2023-04-24T12:33:51.358Z,51.52
2023-04-24T12:36:19.274Z,50.83
2023-04-24T12:38:48.857Z,49.68
2023-04-24T12:41:17.106Z,49.78
2023-04-24T12:43:55.567Z,48.77
2023-04-24T12:46:23.715Z,47.83
2023-04-24T12:48:52.017Z,48.62
2023-04-24T12:51:19.916Z,47.71
2023-04-24T12:53:47.834Z,48.27
2023-04-24T12:56:15.777Z,47.32
2023-04-24T12:58:43.738Z,47.26
2023-04-24T13:01:11.708Z,46.85
2023-04-24T13:03:40.023Z,47.52
2023-04-24T13:06:08.286Z,47.58
2023-04-24T13:08:36.268Z,47.11
2023-04-24T13:11:04.154Z,48.01
2023-04-24T13:13:32.486Z,48.77
2023-04-24T13:16:00.425Z,48.12
2023-04-24T13:18:28.324Z,48.59
2023-04-24T13:20:56.285Z,46.50
2023-04-24T13:23:25.322Z,47.16
2023-04-24T13:25:53.273Z,46.87
2023-04-24T13:28:21.147Z,46.98
2023-04-24T13:30:50.264Z,47.40
2023-04-24T13:33:19.682Z,45.97
2023-04-24T13:35:47.506Z,46.91
2023-04-24T13:38:15.468Z,47.50
2023-04-24T13:40:43.408Z,46.87
2023-04-24T13:43:11.725Z,46.46
2023-04-24T13:45:40.214Z,46.82
2023-04-24T13:48:08.208Z,47.26
2023-04-24T13:50:36.140Z,47.17
2023-04-24T13:53:04.720Z,46.22
2023-04-24T13:55:33.319Z,46.87
2023-04-24T13:58:01.374Z,46.51
2023-04-24T14:00:29.836Z,46.28
2023-04-24T14:02:57.936Z,46.87
2023-04-24T14:05:26.017Z,47.20
2023-04-24T14:07:53.961Z,47.97
2023-04-24T14:10:21.917Z,48.32
2023-04-24T14:12:50.013Z,47.32
2023-04-24T14:15:18.006Z,47.85
2023-04-24T14:17:46.073Z,47.19
2023-04-24T14:20:14.897Z,46.26
2023-04-24T14:22:43.270Z,44.99
2023-04-24T14:25:11.945Z,45.95
2023-04-24T14:27:39.986Z,45.72
2023-04-24T14:30:09.083Z,45.26
2023-04-24T14:32:37.832Z,45.66
2023-04-24T14:35:06.356Z,45.47
2023-04-24T14:37:34.639Z,45.63
2023-04-24T14:42:34.514Z,46.92
2023-04-24T14:45:02.475Z,46.85
2023-04-24T14:47:31.598Z,47.25
2023-04-24T14:49:59.629Z,47.21
2023-04-24T14:52:27.788Z,47.55
2023-04-24T14:54:55.771Z,47.05
2023-04-24T14:57:23.872Z,47.28
2023-04-24T14:59:51.983Z,47.99
2023-04-24T15:02:22.244Z,48.29
2023-04-24T15:04:50.749Z,47.82
2023-04-24T15:07:18.892Z,47.65
2023-04-24T15:09:46.945Z,48.02
2023-04-24T15:12:15.106Z,48.51
2023-04-24T15:14:43.005Z,48.83
2023-04-24T15:17:11.100Z,48.94
2023-04-24T15:19:38.997Z,49.44
2023-04-24T15:22:07.096Z,49.77
2023-04-24T15:24:35.175Z,49.79
2023-04-24T15:27:03.915Z,48.96
2023-04-24T15:29:32.016Z,49.38
2023-04-24T15:32:00.264Z,48.53
2023-04-24T15:34:28.271Z,48.93
2023-04-24T15:36:56.530Z,49.10
2023-04-24T15:39:26.142Z,48.39
2023-04-24T15:41:55.470Z,47.95
2023-04-24T15:44:23.950Z,47.81
2023-04-24T15:46:53.509Z,46.93
2023-04-24T15:49:21.447Z,46.72
2023-04-24T15:51:49.341Z,46.38
2023-04-24T15:54:17.366Z,46.63
2023-04-24T15:56:46.722Z,46.26
2023-04-24T15:59:14.866Z,46.40
2023-04-24T16:01:42.952Z,46.55
2023-04-24T16:04:11.044Z,46.68
2023-04-24T16:06:39.197Z,46.52
2023-04-24T16:09:07.665Z,45.82
2023-04-24T16:11:37.835Z,46.03
2023-04-24T16:14:05.897Z,46.43
2023-04-24T16:16:34.066Z,46.16
2023-04-24T16:19:02.164Z,46.04
2023-04-24T16:21:30.077Z,46.08
2023-04-24T16:23:57.990Z,46.17
2023-04-24T16:26:25.963Z,46.46
2023-04-24T16:28:53.852Z,46.60
2023-04-24T16:31:21.995Z,46.27
2023-04-24T16:33:49.971Z,46.51
2023-04-24T16:36:17.968Z,46.80
2023-04-24T16:38:46.303Z,47.18
2023-04-24T16:41:14.384Z,47.12
2023-04-24T16:43:42.641Z,47.24
2023-04-24T16:46:10.690Z,47.46
2023-04-24T16:48:38.706Z,47.85
2023-04-24T16:51:07.727Z,47.94
2023-04-24T16:53:35.605Z,47.81
2023-04-24T16:56:04.403Z,47.78
2023-04-24T16:58:32.953Z,48.24
2023-04-24T17:01:00.938Z,48.72
2023-04-24T17:03:29.160Z,49.06
2023-04-24T17:05:57.584Z,49.22
2023-04-24T17:08:25.985Z,49.45
2023-04-24T17:10:53.951Z,49.56
2023-04-24T17:13:21.821Z,49.10
2023-04-24T17:15:49.687Z,49.09
2023-04-24T17:18:19.020Z,49.36
2023-04-24T17:20:46.973Z,49.80
2023-04-24T17:23:15.024Z,49.82
2023-04-24T17:25:43.170Z,50.03
2023-04-24T17:28:27.668Z,49.97
2023-04-24T17:30:59.208Z,50.06
2023-04-24T17:33:31.877Z,50.14
2023-04-24T17:36:02.588Z,50.13
2023-04-24T17:38:31.355Z,50.37
2023-04-24T17:40:59.835Z,50.46
2023-04-24T17:43:28.249Z,50.65
2023-04-24T17:46:02.871Z,50.43
2023-04-24T17:48:31.031Z,50.76
2023-04-24T17:50:58.930Z,50.87
2023-04-24T17:53:26.859Z,50.73
2023-04-24T17:55:55.614Z,50.90
2023-04-24T17:58:23.548Z,50.32
2023-04-24T18:00:51.429Z,50.57
2023-04-24T18:03:19.588Z,51.09
2023-04-24T18:05:47.738Z,51.27
2023-04-24T18:08:15.733Z,51.09
2023-04-24T18:10:44.949Z,51.17
2023-04-24T18:13:13.129Z,51.29
2023-04-24T18:15:44.533Z,50.74
2023-04-24T18:18:12.956Z,50.69
2023-04-24T18:20:40.960Z,50.82
2023-04-24T18:23:08.892Z,50.98
2023-04-24T18:25:36.817Z,51.18
2023-04-24T18:28:04.778Z,51.25
2023-04-24T18:30:33.821Z,51.46
2023-04-24T18:33:01.922Z,51.74
2023-04-24T18:35:29.881Z,52.59
2023-04-24T18:37:57.862Z,53.50
2023-04-24T18:40:25.758Z,54.37
2023-04-24T18:42:53.666Z,55.12
2023-04-24T18:45:21.641Z,55.68
2023-04-24T18:47:49.814Z,56.23
2023-04-24T18:50:17.889Z,56.84
2023-04-24T18:52:45.772Z,57.39
2023-04-24T18:55:13.648Z,57.37
2023-04-24T18:57:41.575Z,57.29
2023-04-24T19:00:10.224Z,57.29
2023-04-24T19:02:38.346Z,56.98
2023-04-24T19:05:06.851Z,56.87
2023-04-24T19:07:34.747Z,56.71
2023-04-24T19:10:02.649Z,56.56
2023-04-24T19:12:30.608Z,56.20
2023-04-24T19:14:59.299Z,56.13
2023-04-24T19:17:27.352Z,56.17
2023-04-24T19:19:55.332Z,56.20
2023-04-24T19:22:23.194Z,56.27
2023-04-24T19:24:51.215Z,56.23
2023-04-24T19:27:19.211Z,56.19
2023-04-24T19:29:47.379Z,56.40
2023-04-24T19:32:15.310Z,56.53
2023-04-24T19:34:43.405Z,56.59
2023-04-24T19:37:11.382Z,56.83
2023-04-24T19:39:39.516Z,56.96
2023-04-24T19:42:07.808Z,57.01
2023-04-24T19:44:35.849Z,57.31
2023-04-24T19:47:03.923Z,57.31
2023-04-24T19:49:32.067Z,57.43
2023-04-24T19:51:59.944Z,57.47
2023-04-24T19:54:28.438Z,57.52
2023-04-24T19:56:57.248Z,57.61
2023-04-24T19:59:25.203Z,57.82
2023-04-24T20:01:54.211Z,57.90
2023-04-24T20:04:24.612Z,57.95
2023-04-24T20:06:52.735Z,58.22
2023-04-24T20:09:20.681Z,58.35
2023-04-24T20:11:52.315Z,58.33
2023-04-24T20:14:20.515Z,58.44
2023-04-24T20:16:48.527Z,58.83
2023-04-24T20:19:16.812Z,58.98
2023-04-24T20:21:44.876Z,59.18
2023-04-24T20:24:12.932Z,59.37
2023-04-24T20:26:41.019Z,59.61
2023-04-24T20:29:10.204Z,59.91
2023-04-24T20:31:38.598Z,60.11
2023-04-24T20:34:07.586Z,60.08
2023-04-24T20:36:36.040Z,60.07
2023-04-24T20:39:08.152Z,60.11
2023-04-24T20:41:37.014Z,60.06
2023-04-24T20:44:05.555Z,60.49
2023-04-24T20:46:34.337Z,60.27
2023-04-24T20:49:02.587Z,60.29
2023-04-24T20:51:31.237Z,60.42
2023-04-24T20:53:59.301Z,60.40
2023-04-24T20:56:27.304Z,60.44
2023-04-24T20:58:56.948Z,60.45
2023-04-24T21:01:25.596Z,60.42
2023-04-24T21:03:54.348Z,60.50
2023-04-24T21:06:23.165Z,60.48
2023-04-24T21:08:52.040Z,60.46
2023-04-24T21:11:19.940Z,60.54
2023-04-24T21:13:48.001Z,60.66
2023-04-24T21:16:16.163Z,60.87
2023-04-24T21:18:44.178Z,60.97
2023-04-24T21:21:12.205Z,61.39
2023-04-24T21:23:40.468Z,61.40
2023-04-24T21:26:08.637Z,61.32
2023-04-24T21:28:37.808Z,61.48
2023-04-24T21:31:05.842Z,61.64
2023-04-24T21:33:34.183Z,61.62
2023-04-24T21:36:02.268Z,61.71
2023-04-24T21:38:30.588Z,61.88
2023-04-24T21:40:58.519Z,62.00
2023-04-24T21:43:37.154Z,62.05
2023-04-24T21:46:12.046Z,62.32
2023-04-24T21:48:40.077Z,62.44
2023-04-24T21:51:07.963Z,62.56
2023-04-24T21:53:35.952Z,62.71
2023-04-24T21:56:04.066Z,62.76
2023-04-24T21:58:32.118Z,62.93
2023-04-24T22:01:00.182Z,62.95
2023-04-24T22:03:28.226Z,62.93
2023-04-24T22:05:56.292Z,62.95
2023-04-24T22:08:24.243Z,62.93
2023-04-24T22:10:53.299Z,62.75
2023-04-24T22:13:21.464Z,62.78
2023-04-24T22:15:52.174Z,62.82
2023-04-24T22:18:20.348Z,62.97
2023-04-24T22:20:48.581Z,62.97
2023-04-24T22:23:16.631Z,62.91
2023-04-24T22:25:44.598Z,62.97
2023-04-24T22:28:12.750Z,63.05
2023-04-24T22:30:40.754Z,63.09
2023-04-24T22:33:09.078Z,63.11
2023-04-24T22:35:38.620Z,63.36
2023-04-24T22:38:06.646Z,63.19
2023-04-24T22:40:36.406Z,63.19
2023-04-24T22:43:05.093Z,63.26
2023-04-24T22:45:33.524Z,63.34
2023-04-24T22:48:01.771Z,63.35
2023-04-24T22:50:30.422Z,63.38
2023-04-24T22:52:58.279Z,63.46
2023-04-24T22:55:26.259Z,63.40
2023-04-24T22:57:54.181Z,63.41
2023-04-24T23:00:22.122Z,63.37
2023-04-24T23:02:50.017Z,63.62
2023-04-24T23:05:17.982Z,63.51
2023-04-24T23:07:45.857Z,63.63
2023-04-24T23:10:13.685Z,63.57
2023-04-24T23:12:41.602Z,63.51
2023-04-24T23:15:11.107Z,63.69
2023-04-24T23:17:39.439Z,63.49
2023-04-24T23:20:08.134Z,63.55
2023-04-24T23:22:36.032Z,63.66
2023-04-24T23:25:04.010Z,63.65
2023-04-24T23:27:31.994Z,63.61
2023-04-24T23:29:59.880Z,63.62
2023-04-24T23:32:27.757Z,63.53
2023-04-24T23:34:55.752Z,63.68
2023-04-24T23:37:24.030Z,63.78
2023-04-24T23:39:52.320Z,63.73
2023-04-24T23:42:20.234Z,63.87
2023-04-24T23:44:48.098Z,63.92
2023-04-24T23:47:16.032Z,63.89
2023-04-24T23:49:43.863Z,63.97
2023-04-24T23:52:11.792Z,64.14
2023-04-24T23:54:39.898Z,64.11
2023-04-24T23:57:07.777Z,64.16
2023-04-24T23:59:35.930Z,64.38
